SIA635 RJTT-WSSS
Flight info
| Callsign | SIA635 |
|---|---|
| Flight time | N/A |
| Altitude | 34000 |
| Route | LAXAS Y56 NADAR Z26 TONAR/N0491F360 Y52 IGURU G581 TULTO Q13 KABAM N892 MIGUG/K0913F360 N892 MELAS/N0494F360 N892 MABAL MABAL2A |
| Aircraft | B77W/H-SDE1E2E3FGHIJ2J3J4J5M1RWXY/LB1D1 |
Departure
| Time | N/A |
|---|---|
| Airport | Tokyo Haneda International Airport (RJTT) |
Arrival
| Time | 2026-05-03 23:33 |
|---|---|
| Airport | Singapore Changi Airport (WSSS) |
| Time | Latitude | Longitude | Altitude | Speed | Heading |
|---|---|---|---|---|---|
| 2026-05-03 20:15 | 20.64373 | 119.49637 | 35919 ft | 457 kts | 228° |
| 2026-05-03 20:15 | 20.59910 | 119.44849 | 35917 ft | 457 kts | 228° |
| 2026-05-03 20:16 | 20.55407 | 119.40025 | 35916 ft | 458 kts | 228° |
| 2026-05-03 20:16 | 20.50912 | 119.35211 | 35913 ft | 458 kts | 228° |
| 2026-05-03 20:17 | 20.46418 | 119.30405 | 35921 ft | 459 kts | 227° |
| 2026-05-03 20:17 | 20.41926 | 119.25603 | 35918 ft | 459 kts | 227° |
| 2026-05-03 20:18 | 20.37394 | 119.20763 | 35911 ft | 459 kts | 227° |
| 2026-05-03 20:18 | 20.32894 | 119.15962 | 35911 ft | 459 kts | 227° |
| 2026-05-03 20:19 | 20.28396 | 119.11168 | 35910 ft | 459 kts | 227° |
| 2026-05-03 20:19 | 20.23882 | 119.06359 | 35910 ft | 459 kts | 227° |
| 2026-05-03 20:20 | 20.19355 | 119.01543 | 35915 ft | 460 kts | 227° |
| 2026-05-03 20:20 | 20.14853 | 118.96756 | 35920 ft | 459 kts | 227° |
| 2026-05-03 20:21 | 20.10312 | 118.91932 | 35929 ft | 459 kts | 227° |
| 2026-05-03 20:21 | 20.05789 | 118.87131 | 35925 ft | 459 kts | 227° |
| 2026-05-03 20:22 | 20.01271 | 118.82340 | 35929 ft | 459 kts | 227° |
| 2026-05-03 20:22 | 19.96747 | 118.77547 | 35931 ft | 459 kts | 227° |
| 2026-05-03 20:23 | 19.92233 | 118.72768 | 35930 ft | 459 kts | 227° |
| 2026-05-03 20:23 | 19.87693 | 118.67966 | 35928 ft | 459 kts | 227° |
| 2026-05-03 20:24 | 19.83176 | 118.63192 | 35929 ft | 459 kts | 227° |
| 2026-05-03 20:24 | 19.78665 | 118.58429 | 35927 ft | 459 kts | 227° |
| 2026-05-03 20:25 | 19.74139 | 118.53653 | 35928 ft | 460 kts | 227° |
| 2026-05-03 20:25 | 19.69590 | 118.48858 | 35927 ft | 461 kts | 227° |
| 2026-05-03 20:26 | 19.65033 | 118.44059 | 35928 ft | 461 kts | 227° |
| 2026-05-03 20:26 | 19.60492 | 118.39280 | 35927 ft | 459 kts | 227° |
| 2026-05-03 20:27 | 19.55935 | 118.34489 | 35927 ft | 461 kts | 227° |
| 2026-05-03 20:27 | 19.51400 | 118.29723 | 35931 ft | 459 kts | 227° |
| 2026-05-03 20:28 | 19.46851 | 118.24949 | 35924 ft | 461 kts | 227° |
| 2026-05-03 20:28 | 19.42291 | 118.20166 | 35923 ft | 461 kts | 227° |
| 2026-05-03 20:29 | 19.37745 | 118.15402 | 35921 ft | 460 kts | 227° |
| 2026-05-03 20:29 | 19.33189 | 118.10632 | 35919 ft | 460 kts | 227° |
| 2026-05-03 20:30 | 19.28646 | 118.05878 | 35914 ft | 461 kts | 227° |
| 2026-05-03 20:30 | 19.24097 | 118.01124 | 35914 ft | 460 kts | 227° |
| 2026-05-03 20:31 | 19.19539 | 117.96363 | 35912 ft | 461 kts | 227° |
| 2026-05-03 20:31 | 19.14957 | 117.91582 | 35912 ft | 462 kts | 226° |
| 2026-05-03 20:32 | 19.10402 | 117.86832 | 35910 ft | 462 kts | 227° |
| 2026-05-03 20:32 | 19.05800 | 117.82037 | 35909 ft | 463 kts | 227° |
| 2026-05-03 20:33 | 19.01226 | 117.77276 | 35908 ft | 462 kts | 227° |
| 2026-05-03 20:33 | 18.96651 | 117.72518 | 35906 ft | 462 kts | 226° |
| 2026-05-03 20:34 | 18.92100 | 117.67789 | 35907 ft | 462 kts | 226° |
| 2026-05-03 20:34 | 18.87502 | 117.63014 | 35907 ft | 462 kts | 227° |
| 2026-05-03 20:35 | 18.83316 | 117.58671 | 35906 ft | 463 kts | 226° |
| 2026-05-03 20:35 | 18.78738 | 117.53925 | 35906 ft | 463 kts | 226° |
| 2026-05-03 20:36 | 18.74154 | 117.49175 | 35907 ft | 464 kts | 226° |
| 2026-05-03 20:36 | 18.69527 | 117.44386 | 35906 ft | 464 kts | 226° |
| 2026-05-03 20:37 | 18.64934 | 117.39635 | 35905 ft | 464 kts | 226° |
| 2026-05-03 20:37 | 18.60327 | 117.34875 | 35904 ft | 464 kts | 226° |
| 2026-05-03 20:38 | 18.55708 | 117.30105 | 35912 ft | 464 kts | 226° |
| 2026-05-03 20:38 | 18.51117 | 117.25368 | 35910 ft | 464 kts | 226° |
| 2026-05-03 20:39 | 18.46493 | 117.20601 | 35907 ft | 464 kts | 226° |
| 2026-05-03 20:39 | 18.41884 | 117.15852 | 35906 ft | 465 kts | 226° |
| 2026-05-03 20:40 | 18.37252 | 117.11085 | 35909 ft | 464 kts | 226° |
| 2026-05-03 20:40 | 18.32633 | 117.06334 | 35901 ft | 464 kts | 226° |
| 2026-05-03 20:41 | 18.28037 | 117.01611 | 35897 ft | 465 kts | 226° |
| 2026-05-03 20:41 | 18.23399 | 116.96848 | 35895 ft | 464 kts | 226° |
| 2026-05-03 20:42 | 18.18760 | 116.92088 | 35896 ft | 465 kts | 226° |
| 2026-05-03 20:42 | 18.14141 | 116.87353 | 35903 ft | 465 kts | 226° |
| 2026-05-03 20:43 | 18.09495 | 116.82593 | 35912 ft | 466 kts | 226° |
| 2026-05-03 20:43 | 18.04867 | 116.77855 | 35912 ft | 466 kts | 226° |
| 2026-05-03 20:44 | 18.00224 | 116.73106 | 35909 ft | 466 kts | 226° |
| 2026-05-03 20:44 | 17.95570 | 116.68349 | 35909 ft | 465 kts | 226° |
| 2026-05-03 20:45 | 17.90915 | 116.63594 | 35907 ft | 467 kts | 226° |
| 2026-05-03 20:45 | 17.86263 | 116.58847 | 35904 ft | 467 kts | 226° |
| 2026-05-03 20:46 | 17.81599 | 116.54091 | 35906 ft | 467 kts | 226° |
| 2026-05-03 20:46 | 17.76948 | 116.49352 | 35906 ft | 468 kts | 226° |
| 2026-05-03 20:47 | 17.72267 | 116.44586 | 35905 ft | 467 kts | 226° |
| 2026-05-03 20:47 | 17.67589 | 116.39827 | 35905 ft | 469 kts | 226° |
| 2026-05-03 20:48 | 17.62897 | 116.35058 | 35903 ft | 470 kts | 226° |
| 2026-05-03 20:48 | 17.58220 | 116.30308 | 35912 ft | 470 kts | 226° |
| 2026-05-03 20:49 | 17.53504 | 116.25521 | 35910 ft | 470 kts | 226° |
| 2026-05-03 20:49 | 17.48839 | 116.20790 | 35907 ft | 469 kts | 226° |
| 2026-05-03 20:50 | 17.44143 | 116.16031 | 35906 ft | 470 kts | 226° |
| 2026-05-03 20:50 | 17.39425 | 116.11253 | 35910 ft | 471 kts | 226° |
| 2026-05-03 20:51 | 17.34729 | 116.06501 | 35906 ft | 472 kts | 226° |
| 2026-05-03 20:51 | 17.30016 | 116.01736 | 35908 ft | 472 kts | 226° |
| 2026-05-03 20:52 | 17.25280 | 115.96950 | 35908 ft | 471 kts | 226° |
| 2026-05-03 20:52 | 17.20583 | 115.92208 | 35910 ft | 471 kts | 226° |
| 2026-05-03 20:53 | 17.15856 | 115.87440 | 35911 ft | 472 kts | 226° |
| 2026-05-03 20:53 | 17.11146 | 115.82693 | 35908 ft | 471 kts | 226° |
| 2026-05-03 20:54 | 17.06408 | 115.77919 | 35908 ft | 472 kts | 226° |
| 2026-05-03 20:54 | 16.99310 | 115.70776 | 35907 ft | 470 kts | 226° |
| 2026-05-03 20:55 | 16.94602 | 115.66042 | 35909 ft | 471 kts | 226° |
| 2026-05-03 20:55 | 16.89876 | 115.61293 | 35907 ft | 471 kts | 226° |
| 2026-05-03 20:56 | 16.85162 | 115.56561 | 35906 ft | 471 kts | 226° |
| 2026-05-03 20:56 | 16.80455 | 115.51838 | 35904 ft | 471 kts | 226° |
| 2026-05-03 20:57 | 16.75713 | 115.47084 | 35904 ft | 470 kts | 226° |
| 2026-05-03 20:57 | 16.70990 | 115.42352 | 35901 ft | 472 kts | 226° |
| 2026-05-03 20:58 | 16.66258 | 115.37614 | 35899 ft | 471 kts | 226° |
| 2026-05-03 20:58 | 16.61530 | 115.32886 | 35900 ft | 471 kts | 226° |
| 2026-05-03 20:59 | 16.56835 | 115.28191 | 35893 ft | 470 kts | 226° |
| 2026-05-03 20:59 | 16.52100 | 115.23461 | 35892 ft | 469 kts | 226° |
| 2026-05-03 21:00 | 16.48187 | 115.19555 | 35894 ft | 470 kts | 226° |
| 2026-05-03 21:00 | 16.42664 | 115.14045 | 35891 ft | 471 kts | 226° |
| 2026-05-03 21:01 | 16.37941 | 115.09337 | 35888 ft | 472 kts | 226° |
| 2026-05-03 21:01 | 16.33201 | 115.04616 | 35888 ft | 471 kts | 226° |
| 2026-05-03 21:02 | 16.28444 | 114.99881 | 35892 ft | 471 kts | 226° |
| 2026-05-03 21:02 | 16.23735 | 114.95197 | 35901 ft | 470 kts | 226° |
| 2026-05-03 21:03 | 16.19008 | 114.90498 | 35907 ft | 471 kts | 226° |
| 2026-05-03 21:03 | 16.14248 | 114.85770 | 35908 ft | 471 kts | 226° |
| 2026-05-03 21:04 | 16.09529 | 114.81085 | 35907 ft | 471 kts | 226° |
| 2026-05-03 21:04 | 16.04796 | 114.76390 | 35908 ft | 471 kts | 226° |
| 2026-05-03 21:05 | 16.00046 | 114.71682 | 35908 ft | 471 kts | 226° |
| 2026-05-03 21:05 | 15.95292 | 114.66973 | 35907 ft | 472 kts | 226° |
| 2026-05-03 21:06 | 15.90535 | 114.62264 | 35905 ft | 472 kts | 226° |
| 2026-05-03 21:06 | 15.85756 | 114.57536 | 35893 ft | 473 kts | 226° |
| 2026-05-03 21:07 | 15.81014 | 114.52849 | 35886 ft | 474 kts | 226° |
| 2026-05-03 21:07 | 15.76231 | 114.48123 | 35885 ft | 474 kts | 226° |
| 2026-05-03 21:08 | 15.71447 | 114.43401 | 35887 ft | 474 kts | 226° |
| 2026-05-03 21:08 | 15.66667 | 114.38686 | 35889 ft | 475 kts | 226° |
| 2026-05-03 21:09 | 15.61892 | 114.33978 | 35893 ft | 474 kts | 225° |
| 2026-05-03 21:09 | 15.57109 | 114.29266 | 35893 ft | 473 kts | 226° |
| 2026-05-03 21:10 | 15.52332 | 114.24563 | 35895 ft | 474 kts | 226° |
| 2026-05-03 21:10 | 15.47558 | 114.19865 | 35897 ft | 474 kts | 226° |
| 2026-05-03 21:11 | 15.42767 | 114.15155 | 35898 ft | 474 kts | 226° |
| 2026-05-03 21:11 | 15.37984 | 114.10455 | 35897 ft | 474 kts | 225° |
| 2026-05-03 21:12 | 15.33600 | 114.06152 | 35896 ft | 475 kts | 225° |
| 2026-05-03 21:12 | 15.28835 | 114.01475 | 35897 ft | 475 kts | 225° |
| 2026-05-03 21:13 | 15.23607 | 113.97237 | 35897 ft | 478 kts | 218° |
| 2026-05-03 21:13 | 15.18181 | 113.93209 | 35903 ft | 477 kts | 218° |
| 2026-05-03 21:14 | 15.12788 | 113.89211 | 35907 ft | 476 kts | 218° |
| 2026-05-03 21:14 | 15.07416 | 113.85229 | 35906 ft | 476 kts | 218° |
| 2026-05-03 21:15 | 15.02017 | 113.81231 | 35906 ft | 476 kts | 218° |
| 2026-05-03 21:15 | 14.96636 | 113.77248 | 35902 ft | 477 kts | 218° |
| 2026-05-03 21:16 | 14.91230 | 113.73250 | 35903 ft | 477 kts | 218° |
| 2026-05-03 21:16 | 14.85814 | 113.69246 | 35899 ft | 478 kts | 218° |
| 2026-05-03 21:17 | 14.81306 | 113.65916 | 35898 ft | 478 kts | 218° |
| 2026-05-03 21:17 | 14.74987 | 113.61250 | 35895 ft | 478 kts | 218° |
| 2026-05-03 21:18 | 14.69588 | 113.57267 | 35894 ft | 478 kts | 218° |
| 2026-05-03 21:18 | 14.64166 | 113.53269 | 35898 ft | 478 kts | 218° |
| 2026-05-03 21:19 | 14.58744 | 113.49274 | 35897 ft | 478 kts | 218° |
| 2026-05-03 21:19 | 14.53328 | 113.45285 | 35896 ft | 479 kts | 218° |
| 2026-05-03 21:20 | 14.47887 | 113.41277 | 35895 ft | 479 kts | 218° |
| 2026-05-03 21:20 | 14.42471 | 113.37274 | 35897 ft | 480 kts | 218° |
| 2026-05-03 21:21 | 14.37040 | 113.33263 | 35897 ft | 480 kts | 217° |
| 2026-05-03 21:21 | 14.31623 | 113.29264 | 35896 ft | 479 kts | 217° |
| 2026-05-03 21:22 | 14.26198 | 113.25262 | 35896 ft | 479 kts | 217° |
| 2026-05-03 21:22 | 14.20743 | 113.21241 | 35894 ft | 480 kts | 217° |
| 2026-05-03 21:23 | 14.15310 | 113.17239 | 35891 ft | 481 kts | 217° |
| 2026-05-03 21:23 | 14.09861 | 113.13227 | 35892 ft | 481 kts | 217° |
| 2026-05-03 21:24 | 14.04402 | 113.09210 | 35895 ft | 482 kts | 217° |
| 2026-05-03 21:24 | 13.98930 | 113.05186 | 35902 ft | 482 kts | 217° |
| 2026-05-03 21:25 | 13.93459 | 113.01171 | 35905 ft | 481 kts | 217° |
| 2026-05-03 21:25 | 13.88005 | 112.97175 | 35903 ft | 481 kts | 217° |
| 2026-05-03 21:26 | 13.82546 | 112.93177 | 35896 ft | 482 kts | 217° |
| 2026-05-03 21:26 | 13.77068 | 112.89167 | 35886 ft | 483 kts | 217° |
| 2026-05-03 21:27 | 13.71607 | 112.85173 | 35883 ft | 484 kts | 217° |
| 2026-05-03 21:27 | 13.66114 | 112.81156 | 35887 ft | 483 kts | 217° |
| 2026-05-03 21:28 | 13.60606 | 112.77132 | 35885 ft | 484 kts | 217° |
| 2026-05-03 21:28 | 13.55146 | 112.73144 | 35889 ft | 484 kts | 217° |
| 2026-05-03 21:29 | 13.49629 | 112.69119 | 35885 ft | 485 kts | 217° |
| 2026-05-03 21:29 | 13.44155 | 112.65125 | 35884 ft | 483 kts | 217° |
| 2026-05-03 21:30 | 13.38653 | 112.61114 | 35887 ft | 485 kts | 217° |
| 2026-05-03 21:30 | 13.33152 | 112.57107 | 35888 ft | 485 kts | 217° |
| 2026-05-03 21:31 | 13.27617 | 112.53076 | 35887 ft | 486 kts | 217° |
| 2026-05-03 21:31 | 13.22119 | 112.49075 | 35888 ft | 487 kts | 217° |
| 2026-05-03 21:32 | 13.16579 | 112.45046 | 35887 ft | 486 kts | 218° |
| 2026-05-03 21:32 | 13.11043 | 112.41021 | 35886 ft | 486 kts | 217° |
| 2026-05-03 21:33 | 13.05533 | 112.37018 | 35887 ft | 487 kts | 218° |
| 2026-05-03 21:33 | 13.00018 | 112.33013 | 35892 ft | 487 kts | 217° |
| 2026-05-03 21:34 | 12.94487 | 112.28999 | 35892 ft | 488 kts | 217° |
| 2026-05-03 21:34 | 12.88927 | 112.24966 | 35890 ft | 487 kts | 217° |
| 2026-05-03 21:35 | 12.83406 | 112.20964 | 35888 ft | 488 kts | 217° |
| 2026-05-03 21:35 | 12.77873 | 112.16956 | 35889 ft | 488 kts | 217° |
| 2026-05-03 21:36 | 12.72315 | 112.12931 | 35888 ft | 488 kts | 217° |
| 2026-05-03 21:36 | 12.66753 | 112.08906 | 35889 ft | 488 kts | 217° |
| 2026-05-03 21:37 | 12.61240 | 112.04917 | 35889 ft | 487 kts | 217° |
| 2026-05-03 21:37 | 12.55691 | 112.00906 | 35889 ft | 488 kts | 217° |
| 2026-05-03 21:38 | 12.50145 | 111.96899 | 35888 ft | 487 kts | 217° |
| 2026-05-03 21:38 | 12.44593 | 111.92889 | 35888 ft | 489 kts | 217° |
| 2026-05-03 21:39 | 12.39032 | 111.88876 | 35889 ft | 489 kts | 217° |
| 2026-05-03 21:39 | 12.33487 | 111.84863 | 35890 ft | 488 kts | 217° |
| 2026-05-03 21:40 | 12.27922 | 111.80815 | 35888 ft | 488 kts | 217° |
| 2026-05-03 21:40 | 12.22390 | 111.76795 | 35888 ft | 488 kts | 217° |
| 2026-05-03 21:41 | 12.16863 | 111.72781 | 35889 ft | 488 kts | 217° |
| 2026-05-03 21:41 | 12.11328 | 111.68764 | 35888 ft | 488 kts | 217° |
| 2026-05-03 21:42 | 12.05777 | 111.64737 | 35889 ft | 488 kts | 217° |
| 2026-05-03 21:42 | 12.00251 | 111.60730 | 35887 ft | 488 kts | 217° |
| 2026-05-03 21:43 | 11.94707 | 111.56713 | 35891 ft | 488 kts | 217° |
| 2026-05-03 21:43 | 11.89169 | 111.52702 | 35886 ft | 490 kts | 217° |
| 2026-05-03 21:44 | 11.83591 | 111.48664 | 35886 ft | 489 kts | 217° |
| 2026-05-03 21:44 | 11.78028 | 111.44640 | 35888 ft | 490 kts | 217° |
| 2026-05-03 21:45 | 11.72453 | 111.40608 | 35886 ft | 491 kts | 217° |
| 2026-05-03 21:45 | 11.66879 | 111.36580 | 35883 ft | 492 kts | 217° |
| 2026-05-03 21:46 | 11.61280 | 111.32535 | 35880 ft | 493 kts | 217° |
| 2026-05-03 21:46 | 11.55701 | 111.28507 | 35872 ft | 494 kts | 216° |
| 2026-05-03 21:47 | 11.50053 | 111.24431 | 35868 ft | 493 kts | 216° |
| 2026-05-03 21:47 | 11.44463 | 111.20399 | 35868 ft | 494 kts | 216° |
| 2026-05-03 21:48 | 11.38852 | 111.16353 | 35870 ft | 494 kts | 216° |
| 2026-05-03 21:48 | 11.33238 | 111.12308 | 35872 ft | 493 kts | 216° |
| 2026-05-03 21:49 | 11.27601 | 111.08266 | 35874 ft | 494 kts | 215° |
| 2026-05-03 21:49 | 11.21951 | 111.04259 | 35875 ft | 494 kts | 215° |
| 2026-05-03 21:50 | 11.16333 | 111.00275 | 35874 ft | 493 kts | 215° |
| 2026-05-03 21:50 | 11.10688 | 110.96274 | 35882 ft | 492 kts | 215° |
| 2026-05-03 21:51 | 11.05076 | 110.92296 | 35888 ft | 492 kts | 215° |
| 2026-05-03 21:51 | 10.99457 | 110.88315 | 35888 ft | 491 kts | 214° |
| 2026-05-03 21:52 | 10.93845 | 110.84341 | 35886 ft | 491 kts | 214° |
| 2026-05-03 21:52 | 10.88237 | 110.80371 | 35885 ft | 493 kts | 215° |
| 2026-05-03 21:53 | 10.82579 | 110.76368 | 35883 ft | 494 kts | 215° |
| 2026-05-03 21:53 | 10.76934 | 110.72375 | 35885 ft | 494 kts | 214° |
| 2026-05-03 21:54 | 10.71295 | 110.68390 | 35882 ft | 494 kts | 214° |
| 2026-05-03 21:54 | 10.65658 | 110.64407 | 35883 ft | 493 kts | 214° |
| 2026-05-03 21:55 | 10.60008 | 110.60416 | 35885 ft | 494 kts | 214° |
| 2026-05-03 21:55 | 10.54359 | 110.56428 | 35888 ft | 495 kts | 214° |
| 2026-05-03 21:56 | 10.48720 | 110.52450 | 35890 ft | 495 kts | 214° |
| 2026-05-03 21:56 | 10.43043 | 110.48445 | 35890 ft | 495 kts | 214° |
| 2026-05-03 21:57 | 10.37378 | 110.44452 | 35890 ft | 495 kts | 214° |
| 2026-05-03 21:57 | 10.31735 | 110.40475 | 35890 ft | 496 kts | 214° |
| 2026-05-03 21:58 | 10.26031 | 110.36458 | 35891 ft | 495 kts | 214° |
| 2026-05-03 21:58 | 10.20384 | 110.32481 | 35888 ft | 496 kts | 214° |
| 2026-05-03 21:59 | 10.14724 | 110.28477 | 35889 ft | 496 kts | 214° |
| 2026-05-03 21:59 | 10.09025 | 110.24448 | 35889 ft | 496 kts | 214° |
| 2026-05-03 22:00 | 10.03383 | 110.20461 | 35889 ft | 496 kts | 214° |
| 2026-05-03 22:00 | 9.97930 | 110.16610 | 35889 ft | 496 kts | 214° |
| 2026-05-03 22:01 | 9.92236 | 110.12590 | 35889 ft | 496 kts | 214° |
| 2026-05-03 22:01 | 9.86571 | 110.08593 | 35885 ft | 497 kts | 214° |
| 2026-05-03 22:02 | 9.80902 | 110.04594 | 35883 ft | 497 kts | 214° |
| 2026-05-03 22:02 | 9.75204 | 110.00577 | 35882 ft | 497 kts | 214° |
| 2026-05-03 22:03 | 9.69537 | 109.96583 | 35879 ft | 496 kts | 214° |
| 2026-05-03 22:03 | 9.63856 | 109.92584 | 35867 ft | 497 kts | 214° |
| 2026-05-03 22:04 | 9.58169 | 109.88579 | 35866 ft | 497 kts | 214° |
| 2026-05-03 22:04 | 9.52512 | 109.84596 | 35869 ft | 496 kts | 214° |
| 2026-05-03 22:05 | 9.46845 | 109.80612 | 35869 ft | 497 kts | 214° |
| 2026-05-03 22:05 | 9.41148 | 109.76610 | 35868 ft | 497 kts | 214° |
| 2026-05-03 22:06 | 9.35459 | 109.72615 | 35869 ft | 497 kts | 214° |
| 2026-05-03 22:06 | 9.29778 | 109.68628 | 35869 ft | 497 kts | 214° |
| 2026-05-03 22:07 | 9.24109 | 109.64650 | 35870 ft | 497 kts | 214° |
| 2026-05-03 22:07 | 9.18411 | 109.60653 | 35870 ft | 498 kts | 214° |
| 2026-05-03 22:08 | 9.12729 | 109.56670 | 35871 ft | 498 kts | 214° |
| 2026-05-03 22:08 | 9.07026 | 109.52673 | 35871 ft | 497 kts | 214° |
| 2026-05-03 22:09 | 9.01321 | 109.48676 | 35870 ft | 498 kts | 214° |
| 2026-05-03 22:10 | 8.92799 | 109.42709 | 35872 ft | 498 kts | 214° |
| 2026-05-03 22:10 | 8.87084 | 109.38709 | 35868 ft | 498 kts | 214° |
| 2026-05-03 22:11 | 8.81381 | 109.34721 | 35869 ft | 498 kts | 214° |
| 2026-05-03 22:11 | 8.75686 | 109.30760 | 35865 ft | 498 kts | 214° |
| 2026-05-03 22:12 | 8.69957 | 109.26778 | 35866 ft | 497 kts | 214° |
| 2026-05-03 22:12 | 8.64263 | 109.22822 | 35867 ft | 497 kts | 214° |
| 2026-05-03 22:13 | 8.58552 | 109.18855 | 35868 ft | 497 kts | 214° |
| 2026-05-03 22:13 | 8.52829 | 109.14880 | 35867 ft | 498 kts | 214° |
| 2026-05-03 22:14 | 8.47114 | 109.10912 | 35866 ft | 498 kts | 214° |
| 2026-05-03 22:14 | 8.41394 | 109.06943 | 35867 ft | 498 kts | 213° |
| 2026-05-03 22:15 | 8.35693 | 109.02988 | 35868 ft | 498 kts | 213° |
| 2026-05-03 22:15 | 8.29978 | 108.99026 | 35870 ft | 497 kts | 213° |
| 2026-05-03 22:16 | 8.24285 | 108.95079 | 35873 ft | 497 kts | 213° |
| 2026-05-03 22:16 | 8.18572 | 108.91120 | 35865 ft | 497 kts | 213° |
| 2026-05-03 22:17 | 8.12849 | 108.87156 | 35855 ft | 497 kts | 213° |
| 2026-05-03 22:17 | 8.07161 | 108.83218 | 35858 ft | 497 kts | 213° |
| 2026-05-03 22:18 | 8.01437 | 108.79255 | 35865 ft | 497 kts | 213° |
| 2026-05-03 22:18 | 7.95757 | 108.75324 | 35866 ft | 497 kts | 213° |
| 2026-05-03 22:19 | 7.90057 | 108.71381 | 35864 ft | 495 kts | 213° |
| 2026-05-03 22:19 | 7.84345 | 108.67432 | 35865 ft | 496 kts | 213° |
| 2026-05-03 22:20 | 7.78646 | 108.63492 | 35867 ft | 495 kts | 213° |
| 2026-05-03 22:20 | 7.72962 | 108.59564 | 35868 ft | 497 kts | 213° |
| 2026-05-03 22:21 | 7.67264 | 108.55627 | 35868 ft | 496 kts | 213° |
| 2026-05-03 22:21 | 7.61553 | 108.51684 | 35868 ft | 497 kts | 213° |
| 2026-05-03 22:22 | 7.55826 | 108.47730 | 35871 ft | 498 kts | 213° |
| 2026-05-03 22:22 | 7.50108 | 108.43784 | 35871 ft | 497 kts | 213° |
| 2026-05-03 22:23 | 7.44429 | 108.39866 | 35872 ft | 498 kts | 213° |
| 2026-05-03 22:23 | 7.38707 | 108.35919 | 35872 ft | 497 kts | 213° |
| 2026-05-03 22:24 | 7.32983 | 108.31973 | 35867 ft | 498 kts | 213° |
| 2026-05-03 22:24 | 7.27241 | 108.28015 | 35868 ft | 498 kts | 213° |
| 2026-05-03 22:25 | 7.21537 | 108.24084 | 35867 ft | 498 kts | 213° |
| 2026-05-03 22:25 | 7.15814 | 108.20142 | 35867 ft | 496 kts | 213° |
| 2026-05-03 22:26 | 7.10103 | 108.16209 | 35868 ft | 496 kts | 213° |
| 2026-05-03 22:26 | 7.04433 | 108.12277 | 35870 ft | 496 kts | 214° |
| 2026-05-03 22:27 | 6.98771 | 108.08326 | 35868 ft | 497 kts | 214° |
| 2026-05-03 22:27 | 6.93074 | 108.04353 | 35869 ft | 496 kts | 214° |
| 2026-05-03 22:28 | 6.87402 | 108.00399 | 35866 ft | 497 kts | 214° |
| 2026-05-03 22:28 | 6.81701 | 107.96428 | 35868 ft | 496 kts | 213° |
| 2026-05-03 22:29 | 6.76035 | 107.92481 | 35867 ft | 496 kts | 213° |
| 2026-05-03 22:29 | 6.70329 | 107.88509 | 35867 ft | 496 kts | 213° |
| 2026-05-03 22:30 | 6.64674 | 107.84573 | 35868 ft | 496 kts | 213° |
| 2026-05-03 22:30 | 6.58974 | 107.80608 | 35868 ft | 496 kts | 214° |
| 2026-05-03 22:31 | 6.53313 | 107.76671 | 35869 ft | 496 kts | 214° |
| 2026-05-03 22:31 | 6.47615 | 107.72709 | 35865 ft | 496 kts | 213° |
| 2026-05-03 22:32 | 6.41947 | 107.68768 | 35861 ft | 495 kts | 213° |
| 2026-05-03 22:32 | 6.36267 | 107.64822 | 35856 ft | 495 kts | 213° |
| 2026-05-03 22:33 | 6.30599 | 107.60884 | 35853 ft | 495 kts | 213° |
| 2026-05-03 22:33 | 6.24909 | 107.56932 | 35853 ft | 496 kts | 213° |
| 2026-05-03 22:34 | 6.19236 | 107.52992 | 35852 ft | 495 kts | 213° |
| 2026-05-03 22:34 | 6.13556 | 107.49050 | 35850 ft | 495 kts | 213° |
| 2026-05-03 22:35 | 6.07890 | 107.45117 | 35850 ft | 495 kts | 213° |
| 2026-05-03 22:35 | 6.02235 | 107.41194 | 35853 ft | 494 kts | 213° |
| 2026-05-03 22:36 | 5.96571 | 107.37265 | 35859 ft | 495 kts | 213° |
| 2026-05-03 22:36 | 5.90879 | 107.33318 | 35859 ft | 495 kts | 213° |
| 2026-05-03 22:37 | 5.85219 | 107.29394 | 35866 ft | 494 kts | 213° |
| 2026-05-03 22:37 | 5.79575 | 107.25481 | 35867 ft | 494 kts | 213° |
| 2026-05-03 22:38 | 5.73920 | 107.21563 | 35867 ft | 494 kts | 213° |
| 2026-05-03 22:38 | 5.68245 | 107.17632 | 35867 ft | 493 kts | 213° |
| 2026-05-03 22:39 | 5.62605 | 107.13725 | 35867 ft | 492 kts | 213° |
| 2026-05-03 22:39 | 5.56934 | 107.09798 | 35868 ft | 493 kts | 213° |
| 2026-05-03 22:40 | 5.51288 | 107.05890 | 35868 ft | 493 kts | 213° |
| 2026-05-03 22:40 | 5.45629 | 107.01973 | 35868 ft | 492 kts | 213° |
| 2026-05-03 22:41 | 5.39978 | 106.98063 | 35868 ft | 494 kts | 213° |
| 2026-05-03 22:41 | 5.34347 | 106.94167 | 35868 ft | 493 kts | 213° |
| 2026-05-03 22:42 | 5.28694 | 106.90257 | 35868 ft | 493 kts | 213° |
| 2026-05-03 22:42 | 5.23044 | 106.86351 | 35868 ft | 492 kts | 213° |
| 2026-05-03 22:43 | 5.17386 | 106.82439 | 35869 ft | 493 kts | 213° |
| 2026-05-03 22:43 | 5.11724 | 106.78526 | 35869 ft | 493 kts | 213° |
| 2026-05-03 22:44 | 5.06085 | 106.74629 | 35869 ft | 493 kts | 213° |
| 2026-05-03 22:44 | 5.00419 | 106.70715 | 35869 ft | 493 kts | 213° |
| 2026-05-03 22:45 | 4.94769 | 106.66812 | 35870 ft | 493 kts | 213° |
| 2026-05-03 22:45 | 4.89148 | 106.62930 | 35870 ft | 492 kts | 213° |
| 2026-05-03 22:46 | 4.83511 | 106.59038 | 35869 ft | 492 kts | 213° |
| 2026-05-03 22:46 | 4.77870 | 106.55145 | 35870 ft | 492 kts | 213° |
| 2026-05-03 22:47 | 4.72185 | 106.51221 | 35869 ft | 493 kts | 213° |
| 2026-05-03 22:47 | 4.66530 | 106.47318 | 35870 ft | 493 kts | 213° |
| 2026-05-03 22:48 | 4.60910 | 106.43442 | 35870 ft | 493 kts | 214° |
| 2026-05-03 22:48 | 4.55248 | 106.39536 | 35864 ft | 493 kts | 213° |
| 2026-05-03 22:49 | 4.49575 | 106.35625 | 35860 ft | 493 kts | 214° |
| 2026-05-03 22:49 | 4.43947 | 106.31744 | 35860 ft | 493 kts | 213° |
| 2026-05-03 22:50 | 4.38286 | 106.27841 | 35872 ft | 493 kts | 213° |
| 2026-05-03 22:50 | 4.32636 | 106.23947 | 35869 ft | 492 kts | 213° |
| 2026-05-03 22:51 | 4.27417 | 106.19536 | 35861 ft | 496 kts | 228° |
| 2026-05-03 22:51 | 4.23027 | 106.14207 | 35867 ft | 495 kts | 230° |
| 2026-05-03 22:52 | 4.18679 | 106.08840 | 35866 ft | 494 kts | 230° |
| 2026-05-03 22:52 | 4.14364 | 106.03519 | 35867 ft | 495 kts | 230° |
| 2026-05-03 22:53 | 4.10033 | 105.98183 | 35870 ft | 494 kts | 230° |
| 2026-05-03 22:53 | 4.05686 | 105.92827 | 35869 ft | 495 kts | 230° |
| 2026-05-03 22:54 | 4.01344 | 105.87481 | 35869 ft | 498 kts | 230° |
| 2026-05-03 22:54 | 3.96971 | 105.82096 | 35870 ft | 495 kts | 230° |
| 2026-05-03 22:55 | 3.92635 | 105.76759 | 35871 ft | 494 kts | 230° |
| 2026-05-03 22:55 | 3.88281 | 105.71401 | 35869 ft | 495 kts | 230° |
| 2026-05-03 22:56 | 3.83939 | 105.66059 | 35870 ft | 496 kts | 230° |
| 2026-05-03 22:56 | 3.79615 | 105.60740 | 35870 ft | 494 kts | 230° |
| 2026-05-03 22:57 | 3.75263 | 105.55387 | 35870 ft | 496 kts | 230° |
| 2026-05-03 22:57 | 3.70922 | 105.50040 | 35869 ft | 496 kts | 230° |
| 2026-05-03 22:58 | 3.66559 | 105.44653 | 35871 ft | 496 kts | 230° |
| 2026-05-03 22:58 | 3.62236 | 105.39318 | 35872 ft | 495 kts | 230° |
| 2026-05-03 22:59 | 3.57884 | 105.33948 | 35866 ft | 495 kts | 230° |
| 2026-05-03 22:59 | 3.53546 | 105.28597 | 35868 ft | 496 kts | 230° |
| 2026-05-03 23:00 | 3.49215 | 105.23254 | 35867 ft | 495 kts | 230° |
| 2026-05-03 23:00 | 3.44883 | 105.17914 | 35868 ft | 496 kts | 230° |
| 2026-05-03 23:01 | 3.40506 | 105.12517 | 35868 ft | 496 kts | 230° |
| 2026-05-03 23:01 | 3.36169 | 105.07172 | 35866 ft | 495 kts | 230° |
| 2026-05-03 23:02 | 3.31824 | 105.01817 | 35868 ft | 496 kts | 230° |
| 2026-05-03 23:02 | 3.27489 | 104.96476 | 35869 ft | 495 kts | 231° |
| 2026-05-03 23:03 | 3.23154 | 104.91136 | 35868 ft | 496 kts | 231° |
| 2026-05-03 23:03 | 3.18801 | 104.85774 | 35869 ft | 495 kts | 231° |
| 2026-05-03 23:04 | 3.14461 | 104.80428 | 35867 ft | 495 kts | 231° |
| 2026-05-03 23:04 | 3.10138 | 104.75106 | 35835 ft | 492 kts | 231° |
| 2026-05-03 23:04 | 3.07992 | 104.72463 | 35231 ft | 489 kts | 231° |
| 2026-05-03 23:05 | 3.05839 | 104.69810 | 34148 ft | 494 kts | 231° |
| 2026-05-03 23:05 | 3.03680 | 104.67152 | 33246 ft | 495 kts | 231° |
| 2026-05-03 23:05 | 3.01392 | 104.64550 | 32334 ft | 496 kts | 227° |
| 2026-05-03 23:05 | 2.99037 | 104.62064 | 31434 ft | 498 kts | 226° |
| 2026-05-03 23:06 | 2.96664 | 104.59563 | 30539 ft | 499 kts | 226° |
| 2026-05-03 23:06 | 2.94285 | 104.57049 | 29992 ft | 492 kts | 226° |
| 2026-05-03 23:06 | 2.91949 | 104.54572 | 29506 ft | 485 kts | 226° |
| 2026-05-03 23:06 | 2.89649 | 104.52129 | 28959 ft | 480 kts | 226° |
| 2026-05-03 23:07 | 2.87356 | 104.49690 | 28395 ft | 475 kts | 226° |
| 2026-05-03 23:07 | 2.85118 | 104.47305 | 27858 ft | 471 kts | 226° |
| 2026-05-03 23:07 | 2.82898 | 104.44939 | 27295 ft | 467 kts | 226° |
| 2026-05-03 23:07 | 2.80671 | 104.42564 | 26722 ft | 464 kts | 226° |
| 2026-05-03 23:08 | 2.78479 | 104.40226 | 26152 ft | 460 kts | 226° |
| 2026-05-03 23:08 | 2.76312 | 104.37914 | 25579 ft | 457 kts | 226° |
| 2026-05-03 23:08 | 2.74133 | 104.35587 | 25004 ft | 454 kts | 226° |
| 2026-05-03 23:08 | 2.71976 | 104.33283 | 24416 ft | 451 kts | 226° |
| 2026-05-03 23:09 | 2.69854 | 104.31018 | 23839 ft | 448 kts | 226° |
| 2026-05-03 23:09 | 2.67715 | 104.28734 | 23258 ft | 445 kts | 226° |
| 2026-05-03 23:09 | 2.65621 | 104.26497 | 22681 ft | 442 kts | 226° |
| 2026-05-03 23:09 | 2.63525 | 104.24259 | 22104 ft | 439 kts | 225° |
| 2026-05-03 23:10 | 2.61453 | 104.22046 | 21671 ft | 431 kts | 225° |
| 2026-05-03 23:10 | 2.59450 | 104.19906 | 21572 ft | 416 kts | 225° |
| 2026-05-03 23:10 | 2.57494 | 104.17817 | 21454 ft | 402 kts | 225° |
| 2026-05-03 23:10 | 2.55607 | 104.15802 | 21302 ft | 390 kts | 225° |
| 2026-05-03 23:11 | 2.53724 | 104.13914 | 21138 ft | 377 kts | 218° |
| 2026-05-03 23:11 | 2.51599 | 104.12441 | 20971 ft | 363 kts | 205° |
| 2026-05-03 23:11 | 2.49313 | 104.11537 | 20815 ft | 349 kts | 192° |
| 2026-05-03 23:11 | 2.46923 | 104.11079 | 20483 ft | 348 kts | 185° |
| 2026-05-03 23:12 | 2.44527 | 104.10812 | 20092 ft | 348 kts | 183° |
| 2026-05-03 23:12 | 2.42115 | 104.10652 | 19729 ft | 344 kts | 180° |
| 2026-05-03 23:12 | 2.39731 | 104.10574 | 19382 ft | 341 kts | 179° |
| 2026-05-03 23:12 | 2.37334 | 104.10533 | 19036 ft | 340 kts | 178° |
| 2026-05-03 23:13 | 2.34970 | 104.10513 | 18706 ft | 339 kts | 178° |
| 2026-05-03 23:13 | 2.32599 | 104.10505 | 18365 ft | 338 kts | 177° |
| 2026-05-03 23:13 | 2.30239 | 104.10501 | 18032 ft | 337 kts | 177° |
| 2026-05-03 23:13 | 2.27892 | 104.10500 | 17708 ft | 335 kts | 177° |
| 2026-05-03 23:14 | 2.25581 | 104.10500 | 17378 ft | 333 kts | 176° |
| 2026-05-03 23:14 | 2.23267 | 104.10500 | 17048 ft | 332 kts | 177° |
| 2026-05-03 23:14 | 2.20951 | 104.10500 | 16715 ft | 329 kts | 177° |
| 2026-05-03 23:14 | 2.18651 | 104.10500 | 16392 ft | 328 kts | 177° |
| 2026-05-03 23:15 | 2.16359 | 104.10500 | 16065 ft | 326 kts | 177° |
| 2026-05-03 23:15 | 2.14110 | 104.10500 | 15746 ft | 324 kts | 178° |
| 2026-05-03 23:15 | 2.11855 | 104.10500 | 15426 ft | 322 kts | 178° |
| 2026-05-03 23:15 | 2.09598 | 104.10500 | 15109 ft | 321 kts | 178° |
| 2026-05-03 23:16 | 2.07352 | 104.10500 | 14795 ft | 320 kts | 178° |
| 2026-05-03 23:16 | 2.05144 | 104.10500 | 14485 ft | 318 kts | 178° |
| 2026-05-03 23:16 | 2.02930 | 104.10500 | 14172 ft | 317 kts | 178° |
| 2026-05-03 23:16 | 2.00707 | 104.10500 | 13853 ft | 315 kts | 178° |
| 2026-05-03 23:17 | 1.98511 | 104.10500 | 13528 ft | 313 kts | 178° |
| 2026-05-03 23:17 | 1.96340 | 104.10508 | 13230 ft | 312 kts | 178° |
| 2026-05-03 23:17 | 1.94160 | 104.10519 | 12921 ft | 310 kts | 178° |
| 2026-05-03 23:17 | 1.91998 | 104.10530 | 12612 ft | 308 kts | 178° |
| 2026-05-03 23:18 | 1.89871 | 104.10540 | 12317 ft | 307 kts | 178° |
| 2026-05-03 23:18 | 1.87723 | 104.10550 | 12049 ft | 306 kts | 178° |
| 2026-05-03 23:18 | 1.85573 | 104.10559 | 11771 ft | 306 kts | 178° |
| 2026-05-03 23:18 | 1.83444 | 104.10569 | 11487 ft | 306 kts | 178° |
| 2026-05-03 23:19 | 1.81305 | 104.10578 | 11182 ft | 302 kts | 179° |
| 2026-05-03 23:19 | 1.79207 | 104.10587 | 10886 ft | 299 kts | 179° |
| 2026-05-03 23:19 | 1.77118 | 104.10597 | 10598 ft | 295 kts | 179° |
| 2026-05-03 23:19 | 1.75086 | 104.10606 | 10317 ft | 292 kts | 179° |
| 2026-05-03 23:20 | 1.73044 | 104.10616 | 10026 ft | 289 kts | 179° |
| 2026-05-03 23:20 | 1.71053 | 104.10624 | 9721 ft | 287 kts | 179° |
| 2026-05-03 23:20 | 1.69025 | 104.10633 | 9406 ft | 286 kts | 179° |
| 2026-05-03 23:20 | 1.67039 | 104.10642 | 9105 ft | 284 kts | 179° |
| 2026-05-03 23:21 | 1.65069 | 104.10651 | 8803 ft | 284 kts | 179° |
| 2026-05-03 23:21 | 1.63072 | 104.10660 | 8494 ft | 283 kts | 179° |
| 2026-05-03 23:21 | 1.61110 | 104.10741 | 8194 ft | 281 kts | 173° |
| 2026-05-03 23:21 | 1.59171 | 104.11005 | 7910 ft | 278 kts | 171° |
| 2026-05-03 23:22 | 1.55402 | 104.11572 | 7366 ft | 269 kts | 171° |
| 2026-05-03 23:22 | 1.53570 | 104.11843 | 7106 ft | 264 kts | 171° |
| 2026-05-03 23:22 | 1.51765 | 104.12109 | 6847 ft | 259 kts | 171° |
| 2026-05-03 23:23 | 1.49978 | 104.12371 | 6590 ft | 255 kts | 171° |
| 2026-05-03 23:23 | 1.48234 | 104.12627 | 6337 ft | 251 kts | 171° |
| 2026-05-03 23:23 | 1.46497 | 104.12861 | 6085 ft | 249 kts | 178° |
| 2026-05-03 23:23 | 1.44790 | 104.12571 | 5854 ft | 248 kts | 199° |
| 2026-05-03 23:24 | 1.43190 | 104.11947 | 5773 ft | 249 kts | 203° |
| 2026-05-03 23:24 | 1.41573 | 104.11260 | 5687 ft | 249 kts | 203° |
| 2026-05-03 23:24 | 1.39983 | 104.10583 | 5585 ft | 247 kts | 203° |
| 2026-05-03 23:24 | 1.38398 | 104.09911 | 5481 ft | 248 kts | 203° |
| 2026-05-03 23:25 | 1.36791 | 104.09230 | 5373 ft | 248 kts | 203° |
| 2026-05-03 23:25 | 1.35204 | 104.08558 | 5282 ft | 248 kts | 203° |
| 2026-05-03 23:25 | 1.33623 | 104.07888 | 5166 ft | 246 kts | 203° |
| 2026-05-03 23:25 | 1.32042 | 104.07218 | 5057 ft | 245 kts | 203° |
| 2026-05-03 23:26 | 1.30464 | 104.06551 | 4952 ft | 246 kts | 203° |
| 2026-05-03 23:26 | 1.28891 | 104.05885 | 4859 ft | 244 kts | 203° |
| 2026-05-03 23:26 | 1.27321 | 104.05219 | 4747 ft | 244 kts | 203° |
| 2026-05-03 23:26 | 1.25746 | 104.04553 | 4639 ft | 244 kts | 203° |
| 2026-05-03 23:27 | 1.24170 | 104.03886 | 4535 ft | 245 kts | 203° |
| 2026-05-03 23:27 | 1.22618 | 104.03228 | 4431 ft | 243 kts | 203° |
| 2026-05-03 23:27 | 1.21056 | 104.02567 | 4328 ft | 243 kts | 203° |
| 2026-05-03 23:27 | 1.19488 | 104.01903 | 4223 ft | 242 kts | 203° |
| 2026-05-03 23:28 | 1.17988 | 104.01177 | 4119 ft | 234 kts | 216° |
| 2026-05-03 23:28 | 1.16987 | 103.99940 | 4008 ft | 230 kts | 248° |
| 2026-05-03 23:28 | 1.16814 | 103.98378 | 3938 ft | 227 kts | 278° |
| 2026-05-03 23:28 | 1.17387 | 103.96925 | 3680 ft | 226 kts | 307° |
| 2026-05-03 23:29 | 1.18492 | 103.95857 | 3374 ft | 219 kts | 323° |
| 2026-05-03 23:29 | 1.19735 | 103.95005 | 3115 ft | 216 kts | 328° |
| 2026-05-03 23:29 | 1.21013 | 103.94203 | 2870 ft | 216 kts | 329° |
| 2026-05-03 23:29 | 1.22309 | 103.93441 | 2626 ft | 215 kts | 337° |
| 2026-05-03 23:30 | 1.23770 | 103.93275 | 2468 ft | 213 kts | 8° |
| 2026-05-03 23:30 | 1.25148 | 103.93658 | 2450 ft | 194 kts | 20° |
| 2026-05-03 23:30 | 1.26324 | 103.94157 | 2399 ft | 171 kts | 24° |
| 2026-05-03 23:30 | 1.27394 | 103.94627 | 1892 ft | 166 kts | 22° |
| 2026-05-03 23:31 | 1.28436 | 103.95033 | 1469 ft | 155 kts | 21° |
| 2026-05-03 23:31 | 1.29403 | 103.95403 | 1167 ft | 142 kts | 21° |
| 2026-05-03 23:31 | 1.30287 | 103.95847 | 975 ft | 143 kts | 30° |
| 2026-05-03 23:31 | 1.31194 | 103.96268 | 685 ft | 138 kts | 20° |
| 2026-05-03 23:32 | 1.32101 | 103.96600 | 588 ft | 141 kts | 19° |
| 2026-05-03 23:32 | 1.33018 | 103.96945 | 443 ft | 140 kts | 23° |
| 2026-05-03 23:32 | 1.33933 | 103.97340 | 276 ft | 146 kts | 24° |
| 2026-05-03 23:32 | 1.34861 | 103.97742 | 108 ft | 139 kts | 22° |
| 2026-05-03 23:33 | 1.35707 | 103.98098 | 35 ft | 123 kts | 22° |
| 2026-05-03 23:33 | 1.36437 | 103.98395 | 35 ft | 97 kts | 22° |
| 2026-05-03 23:33 | 1.36946 | 103.98611 | 35 ft | 61 kts | 23° |
| 2026-05-03 23:33 | 1.37229 | 103.98730 | 35 ft | 25 kts | 22° |
| 2026-05-03 23:34 | 1.37305 | 103.98761 | 35 ft | 8 kts | 22° |
| 2026-05-03 23:34 | 1.37360 | 103.98787 | 35 ft | 8 kts | 29° |
| 2026-05-03 23:34 | 1.37409 | 103.98824 | 35 ft | 8 kts | 43° |
| 2026-05-03 23:34 | 1.37452 | 103.98869 | 35 ft | 8 kts | 49° |
| 2026-05-03 23:35 | 1.37469 | 103.98890 | 35 ft | 0 kts | 56° |
| 2026-05-03 23:35 | 1.37472 | 103.98895 | 35 ft | 1 kts | 56° |
| 2026-05-03 23:35 | 1.37477 | 103.98901 | 35 ft | 1 kts | 56° |
| 2026-05-03 23:35 | 1.37484 | 103.98911 | 35 ft | 1 kts | 56° |
| 2026-05-03 23:36 | 1.37492 | 103.98923 | 35 ft | 2 kts | 55° |
| 2026-05-03 23:36 | 1.37502 | 103.98939 | 35 ft | 2 kts | 55° |
| 2026-05-03 23:36 | 1.37515 | 103.98956 | 35 ft | 3 kts | 55° |
| 2026-05-03 23:36 | 1.37530 | 103.98978 | 35 ft | 3 kts | 55° |
| 2026-05-03 23:37 | 1.37546 | 103.99001 | 35 ft | 4 kts | 54° |
| 2026-05-03 23:37 | 1.37566 | 103.99028 | 35 ft | 5 kts | 54° |
| 2026-05-03 23:37 | 1.37596 | 103.99066 | 35 ft | 8 kts | 52° |
| 2026-05-03 23:37 | 1.37616 | 103.99129 | 35 ft | 11 kts | 90° |
| 2026-05-03 23:38 | 1.37580 | 103.99200 | 35 ft | 11 kts | 153° |
| 2026-05-03 23:38 | 1.37511 | 103.99205 | 35 ft | 9 kts | 189° |
| 2026-05-03 23:38 | 1.37436 | 103.99183 | 35 ft | 12 kts | 200° |
| 2026-05-03 23:38 | 1.37350 | 103.99146 | 35 ft | 14 kts | 206° |
| 2026-05-03 23:39 | 1.37275 | 103.99112 | 35 ft | 9 kts | 203° |
| 2026-05-03 23:39 | 1.37202 | 103.99081 | 35 ft | 12 kts | 203° |
| 2026-05-03 23:39 | 1.37153 | 103.99061 | 35 ft | 6 kts | 202° |
| 2026-05-03 23:39 | 1.37105 | 103.99038 | 35 ft | 8 kts | 221° |
| 2026-05-03 23:40 | 1.37086 | 103.99011 | 35 ft | 3 kts | 239° |
| 2026-05-03 23:40 | 1.37067 | 103.98981 | 35 ft | 6 kts | 233° |
| 2026-05-03 23:40 | 1.37023 | 103.98943 | 35 ft | 10 kts | 210° |
| 2026-05-03 23:40 | 1.36951 | 103.98909 | 35 ft | 12 kts | 204° |
| 2026-05-03 23:41 | 1.36862 | 103.98871 | 35 ft | 15 kts | 203° |
| 2026-05-03 23:41 | 1.36759 | 103.98828 | 35 ft | 17 kts | 203° |
| 2026-05-03 23:41 | 1.36657 | 103.98808 | 35 ft | 15 kts | 180° |
| 2026-05-03 23:41 | 1.36570 | 103.98816 | 35 ft | 12 kts | 174° |
| 2026-05-03 23:42 | 1.36477 | 103.98804 | 35 ft | 14 kts | 198° |
| 2026-05-03 23:42 | 1.36430 | 103.98786 | 35 ft | 0 kts | 202° |
| 2026-05-03 23:42 | 1.36416 | 103.98782 | 35 ft | 3 kts | 189° |
| 2026-05-03 23:42 | 1.36413 | 103.98782 | 35 ft | 0 kts | 181° |
| 2026-05-03 23:43 | 1.36412 | 103.98782 | 35 ft | 0 kts | 180° |
| 2026-05-03 23:43 | 1.36411 | 103.98782 | 35 ft | 0 kts | 172° |
| 2026-05-03 23:43 | 1.36407 | 103.98783 | 35 ft | 1 kts | 156° |
| 2026-05-03 23:43 | 1.36399 | 103.98789 | 35 ft | 1 kts | 134° |
| 2026-05-03 23:44 | 1.36393 | 103.98799 | 35 ft | 0 kts | 119° |
| 2026-05-03 23:44 | 1.36388 | 103.98808 | 35 ft | 0 kts | 117° |
| 2026-05-03 23:44 | 1.36384 | 103.98816 | 35 ft | 2 kts | 117° |
| 2026-05-03 23:44 | 1.36378 | 103.98827 | 35 ft | 1 kts | 117° |
| 2026-05-03 23:45 | 1.36374 | 103.98835 | 35 ft | 0 kts | 117° |
| 2026-05-03 23:45 | 1.36372 | 103.98839 | 35 ft | 0 kts | 116° |
| 2026-05-03 23:45 | 1.36369 | 103.98845 | 35 ft | 2 kts | 116° |
| 2026-05-03 23:46 | 1.36360 | 103.98862 | 35 ft | 0 kts | 115° |
| 2026-05-03 23:46 | 1.36359 | 103.98864 | 35 ft | 0 kts | 115° |
| 2026-05-03 23:46 | 1.36359 | 103.98865 | 35 ft | 0 kts | 115° |